• Unsere Gaststätte hat ab dem 20.06.2020 wieder für Sie geöffenet!

    Unsere Gaststätte hat ab dem 20.06.2020 wieder für Sie geöffenet!

    Wir freuen uns auf Ihren Besuch!

  • Frühling ist Ausbildungsbeginn !!

    Frühling ist Ausbildungsbeginn !!

    Du wolltest schon immer mal Pilot werden ?
    Jetzt ist der richtige Zeitpunkt!
    Die Ausbildung zum Segelflugpiloten findet wieder statt.
    Ab 14 Jahre geht es bereits los.
    Auch die Ausbildung zum

    zum Bericht
  • GPS Triangle WM

    GPS Triangle WM

    Die GPS WM wurde aufgrund der Corona Beschränkungen auf 2021 verschoben.

    zum Bericht
  • 1
  • 1

WebCam

  
Kamera Halle
Kamera Vorfeld

GPS Triangle WM Sports Class

AeroClub Göppingen-Salach e.V.
Ausrichter der Modellflug
GPS Triangle-WM 2020

 

Aufgrund der aktuellen Corona Situation ist die WM auf den 15.8.-20.8.2021 verschoben
Wetter EDDS

METAR

EDDS 051650Z 25009KT 200V310 CAVOK 27/15 Q1015 NOSIG =
EDDS 051100Z 0512/0612 25012KT 9999 BKN040 TEMPO 0512/0518 25015G25KT BECMG 0518/0521 25006KT BECMG 0607/0610 27012KT TEMPO 0610/0612 27015G25KT


TAF

EDDS 051100Z 0512/0612 25012KT 9999 BKN040 TEMPO 0512/0518 25015G25KT BECMG 0518/0521 25006KT BECMG 0607/0610 27012KT TEMPO 0610/0612 27015G25KT =


SR/SS

03:26 / 19:25 UTC
(EDSO 05-07-2020)